createdAt,value
2019-02-26T00:02:33.121Z,101380.00
2019-02-26T00:05:08.416Z,101377.00
2019-02-26T00:07:51.569Z,101383.00
2019-02-26T00:10:36.465Z,101381.00
2019-02-26T00:13:18.711Z,101379.00
2019-02-26T00:15:54.639Z,101382.00
2019-02-26T00:18:36.611Z,101396.00
2019-02-26T00:21:12.627Z,101382.00
2019-02-26T00:23:55.016Z,101379.00
2019-02-26T00:26:31.114Z,101397.00
2019-02-26T00:29:21.165Z,101401.00
2019-02-26T00:31:57.844Z,101403.00
2019-02-26T00:34:34.605Z,101406.00
2019-02-26T00:37:11.116Z,101414.00
2019-02-26T00:39:47.508Z,101419.00
2019-02-26T00:42:32.021Z,101419.00
2019-02-26T00:45:08.014Z,101410.00
2019-02-26T00:47:44.115Z,101399.00
2019-02-26T00:50:30.183Z,101377.00
2019-02-26T00:53:05.418Z,101357.00
2019-02-26T00:55:47.601Z,101350.00
2019-02-26T00:58:23.690Z,101345.00
2019-02-26T01:01:10.255Z,101323.00
2019-02-26T01:03:45.274Z,101326.00
2019-02-26T01:06:28.894Z,101328.00
2019-02-26T01:09:11.411Z,101350.00
2019-02-26T01:11:54.305Z,101362.00
2019-02-26T01:14:39.173Z,101366.00
2019-02-26T01:17:16.476Z,101359.00
2019-02-26T01:19:54.278Z,101357.00
2019-02-26T01:22:31.098Z,101350.00
2019-02-26T01:25:27.538Z,101348.00
2019-02-26T01:28:03.514Z,101341.00
2019-02-26T01:30:45.377Z,101333.00
2019-02-26T01:33:22.336Z,101339.00
2019-02-26T01:36:00.117Z,101340.00
2019-02-26T01:38:39.485Z,101350.00
2019-02-26T01:41:15.476Z,101352.00
2019-02-26T01:43:50.924Z,101328.00
2019-02-26T01:46:26.798Z,101331.00
2019-02-26T01:49:08.838Z,101334.00
2019-02-26T01:51:45.717Z,101333.00
2019-02-26T01:54:16.745Z,101325.00
2019-02-26T01:56:59.136Z,101334.00
2019-02-26T01:59:41.533Z,101324.00
2019-02-26T02:02:25.385Z,101334.00
2019-02-26T02:05:03.188Z,101336.00
2019-02-26T02:07:38.237Z,101345.00
2019-02-26T02:10:21.926Z,101350.00
2019-02-26T02:12:59.749Z,101349.00
2019-02-26T02:15:35.709Z,101358.00
2019-02-26T02:18:11.586Z,101355.00
2019-02-26T02:20:47.511Z,101366.00
2019-02-26T02:23:30.345Z,101358.00
2019-02-26T02:26:07.150Z,101349.00
2019-02-26T02:28:43.780Z,101352.00
2019-02-26T02:31:22.009Z,101365.00
2019-02-26T02:34:03.909Z,101365.00
2019-02-26T02:36:39.674Z,101345.00
2019-02-26T02:39:15.747Z,101337.00
2019-02-26T02:41:59.819Z,101351.00
2019-02-26T02:44:35.030Z,101346.00
2019-02-26T02:47:16.883Z,101332.00
2019-02-26T02:49:52.776Z,101336.00
2019-02-26T02:52:30.379Z,101341.00
2019-02-26T02:55:09.911Z,101347.00
2019-02-26T02:57:48.668Z,101333.00
2019-02-26T03:00:32.170Z,101334.00
2019-02-26T03:03:06.405Z,101341.00
2019-02-26T03:05:43.822Z,101343.00
2019-02-26T03:08:22.040Z,101357.00
2019-02-26T03:10:56.801Z,101357.00
2019-02-26T03:13:32.070Z,101364.00
2019-02-26T03:16:01.603Z,101365.00
2019-02-26T03:18:44.529Z,101356.00
2019-02-26T03:21:22.010Z,101356.00
2019-02-26T03:24:06.220Z,101345.00
2019-02-26T03:26:42.237Z,101371.00
2019-02-26T03:29:18.514Z,101367.00
2019-02-26T03:32:07.296Z,101366.00
2019-02-26T03:34:43.241Z,101363.00
2019-02-26T03:37:25.923Z,101363.00
2019-02-26T03:40:05.943Z,101370.00
2019-02-26T03:42:41.565Z,101370.00
2019-02-26T03:45:31.090Z,101357.00
2019-02-26T03:48:07.103Z,101366.00
2019-02-26T03:50:49.746Z,101362.00
2019-02-26T03:53:28.088Z,101361.00
2019-02-26T03:56:14.264Z,101365.00
2019-02-26T03:58:47.130Z,101358.00
2019-02-26T04:01:22.925Z,101363.00
2019-02-26T04:04:05.393Z,101378.00
2019-02-26T04:06:45.922Z,101373.00
2019-02-26T04:09:21.986Z,101378.00
2019-02-26T04:11:56.789Z,101389.00
2019-02-26T04:14:32.949Z,101383.00
2019-02-26T04:17:09.139Z,101388.00
2019-02-26T04:19:44.734Z,101396.00
2019-02-26T04:22:27.891Z,101387.00
2019-02-26T04:25:17.670Z,101388.00
2019-02-26T04:28:19.768Z,101302.00
2019-02-26T04:31:03.384Z,101391.00
2019-02-26T04:33:58.897Z,101392.00
2019-02-26T04:36:40.275Z,101379.00
2019-02-26T04:39:49.525Z,101380.00
2019-02-26T04:42:43.665Z,101390.00
2019-02-26T04:45:39.107Z,101384.00
2019-02-26T04:48:22.786Z,101391.00
2019-02-26T04:51:03.928Z,101392.00
2019-02-26T04:53:39.676Z,101389.00
2019-02-26T04:56:15.526Z,101373.00
2019-02-26T04:58:51.370Z,101373.00
2019-02-26T05:01:34.784Z,101386.00
2019-02-26T05:04:10.277Z,101381.00
2019-02-26T05:06:52.591Z,101395.00
2019-02-26T05:09:29.792Z,101395.00
2019-02-26T05:12:05.221Z,101385.00
2019-02-26T05:14:40.546Z,101402.00
2019-02-26T05:17:18.498Z,101387.00
2019-02-26T05:19:53.911Z,101383.00
2019-02-26T05:22:31.033Z,101378.00
2019-02-26T05:25:17.643Z,101387.00
2019-02-26T05:27:59.221Z,101381.00
2019-02-26T05:30:28.395Z,101378.00
2019-02-26T05:33:05.560Z,101389.00
2019-02-26T05:35:43.799Z,101397.00
2019-02-26T05:38:18.320Z,101382.00
2019-02-26T05:41:07.584Z,101378.00
2019-02-26T05:44:10.648Z,101390.00
2019-02-26T05:46:56.095Z,101384.00
2019-02-26T05:49:33.829Z,101385.00
2019-02-26T05:52:07.488Z,101394.00
2019-02-26T05:54:43.347Z,101391.00
2019-02-26T05:57:30.881Z,101385.00
2019-02-26T06:00:04.308Z,101380.00
2019-02-26T06:02:42.126Z,101379.00
2019-02-26T06:05:26.039Z,101379.00
2019-02-26T06:08:01.581Z,101369.00
2019-02-26T06:10:36.872Z,101378.00
2019-02-26T06:13:07.660Z,101374.00
2019-02-26T06:15:51.510Z,101380.00
2019-02-26T06:18:27.794Z,101377.00
2019-02-26T06:21:03.776Z,101382.00
2019-02-26T06:23:39.447Z,101400.00
2019-02-26T06:26:17.719Z,101394.00
2019-02-26T06:28:55.802Z,101406.00
2019-02-26T06:31:32.144Z,101398.00
2019-02-26T06:34:08.654Z,101384.00
2019-02-26T06:36:46.569Z,101373.00
2019-02-26T06:39:29.823Z,101392.00
2019-02-26T06:42:07.551Z,101382.00
2019-02-26T06:44:43.759Z,101380.00
2019-02-26T06:47:21.180Z,101376.00
2019-02-26T06:50:13.171Z,101371.00
2019-02-26T06:52:54.981Z,101375.00
2019-02-26T06:55:37.831Z,101388.00
2019-02-26T06:58:26.050Z,101378.00
2019-02-26T07:01:03.570Z,101376.00
2019-02-26T07:03:32.736Z,101384.00
2019-02-26T07:06:18.474Z,101381.00
2019-02-26T07:08:59.538Z,101399.00
2019-02-26T07:11:37.779Z,101388.00
2019-02-26T07:14:12.606Z,101418.00
2019-02-26T07:16:47.750Z,101438.00
2019-02-26T07:19:23.883Z,101425.00
2019-02-26T07:21:59.906Z,101419.00
2019-02-26T07:24:44.529Z,101430.00
2019-02-26T07:27:18.782Z,101430.00
2019-02-26T07:30:01.046Z,101430.00
2019-02-26T07:32:46.179Z,101429.00
2019-02-26T07:35:20.924Z,101434.00
2019-02-26T07:38:03.655Z,101443.00
2019-02-26T07:40:33.102Z,101437.00
2019-02-26T07:43:17.931Z,101437.00
2019-02-26T07:45:53.686Z,101438.00
2019-02-26T07:48:31.218Z,101437.00
2019-02-26T07:50:59.862Z,101437.00
2019-02-26T07:53:35.987Z,101449.00
2019-02-26T07:56:11.311Z,101461.00
2019-02-26T07:58:41.258Z,101461.00
2019-02-26T08:01:23.575Z,101470.00
2019-02-26T08:04:08.530Z,101459.00
2019-02-26T08:06:43.900Z,101483.00
2019-02-26T08:09:26.322Z,101479.00
2019-02-26T08:12:02.453Z,101498.00
2019-02-26T08:14:41.022Z,101489.00
2019-02-26T08:17:22.603Z,101495.00
2019-02-26T08:20:07.234Z,101492.00
2019-02-26T08:22:41.414Z,101493.00
2019-02-26T08:25:18.331Z,101492.00
2019-02-26T08:27:56.387Z,101491.00
2019-02-26T08:30:31.314Z,101494.00
2019-02-26T08:33:07.484Z,101494.00
2019-02-26T08:35:49.737Z,101500.00
2019-02-26T08:38:29.384Z,101500.00
2019-02-26T08:41:03.394Z,101511.00
2019-02-26T08:43:47.076Z,101508.00
2019-02-26T08:46:17.118Z,101506.00
2019-02-26T08:48:53.538Z,101511.00
2019-02-26T08:51:29.424Z,101500.00
2019-02-26T08:54:20.505Z,101504.00
2019-02-26T08:56:56.168Z,101510.00
2019-02-26T08:59:38.440Z,101511.00
2019-02-26T09:02:14.174Z,101520.00
2019-02-26T09:04:56.536Z,101519.00
2019-02-26T09:07:40.469Z,101532.00
2019-02-26T09:10:20.479Z,101532.00
2019-02-26T09:12:55.765Z,101538.00
2019-02-26T09:15:40.772Z,101535.00
2019-02-26T09:18:15.911Z,101541.00
2019-02-26T09:20:58.318Z,101546.00
2019-02-26T09:23:28.821Z,101569.00
2019-02-26T09:26:11.122Z,101539.00
2019-02-26T09:28:48.228Z,101539.00
2019-02-26T09:31:23.835Z,101546.00
2019-02-26T09:34:06.000Z,101545.00
2019-02-26T09:36:55.581Z,101548.00
2019-02-26T09:39:34.099Z,101540.00
2019-02-26T09:42:09.981Z,101538.00
2019-02-26T09:44:53.121Z,101531.00
2019-02-26T09:47:31.583Z,101552.00
2019-02-26T09:50:07.235Z,101547.00
2019-02-26T09:52:50.821Z,101542.00
2019-02-26T09:55:26.980Z,101561.00
2019-02-26T09:58:02.719Z,101567.00
2019-02-26T10:00:40.391Z,101574.00
2019-02-26T10:03:35.650Z,101559.00
2019-02-26T10:06:07.524Z,101564.00
2019-02-26T10:08:45.721Z,101561.00
2019-02-26T10:11:28.117Z,101570.00
2019-02-26T10:14:05.302Z,101563.00
2019-02-26T10:16:50.071Z,101592.00
2019-02-26T10:19:25.129Z,101594.00
2019-02-26T10:22:10.837Z,101588.00
2019-02-26T10:24:51.569Z,101597.00
2019-02-26T10:27:28.513Z,101614.00
2019-02-26T10:30:16.217Z,101604.00
2019-02-26T10:33:02.011Z,101599.00
2019-02-26T10:35:44.415Z,101605.00
2019-02-26T10:38:18.755Z,101606.00
2019-02-26T10:40:56.839Z,101620.00
2019-02-26T10:43:32.042Z,101624.00
2019-02-26T10:46:08.165Z,101599.00
2019-02-26T10:48:52.766Z,101608.00
2019-02-26T10:51:27.315Z,101608.00
2019-02-26T10:54:08.247Z,101619.00
2019-02-26T10:56:54.710Z,101616.00
2019-02-26T10:59:30.000Z,101605.00
2019-02-26T11:02:05.518Z,101613.00
2019-02-26T11:04:44.044Z,101618.00
2019-02-26T11:07:26.420Z,101608.00
2019-02-26T11:10:11.969Z,101615.00
2019-02-26T11:12:48.247Z,101609.00
2019-02-26T11:15:29.926Z,101604.00
2019-02-26T11:18:04.332Z,101608.00
2019-02-26T11:20:40.506Z,101618.00
2019-02-26T11:23:16.258Z,101600.00
2019-02-26T11:25:51.885Z,101592.00
2019-02-26T11:28:37.883Z,101612.00
2019-02-26T11:31:16.496Z,101598.00
2019-02-26T11:34:01.003Z,101585.00
2019-02-26T11:36:38.377Z,101591.00
2019-02-26T11:39:13.761Z,101589.00
2019-02-26T11:41:53.102Z,101599.00
2019-02-26T11:44:27.725Z,101588.00
2019-02-26T11:47:02.951Z,101597.00
2019-02-26T11:49:46.627Z,101607.00
2019-02-26T11:52:22.292Z,101591.00
2019-02-26T11:54:58.889Z,101589.00
2019-02-26T11:57:37.691Z,101593.00
2019-02-26T12:00:42.783Z,101594.00
2019-02-26T12:03:25.409Z,101589.00
2019-02-26T12:06:01.967Z,101584.00
2019-02-26T12:08:59.002Z,101586.00
2019-02-26T12:11:41.057Z,101583.00
2019-02-26T12:14:10.971Z,101583.00
2019-02-26T12:16:54.525Z,101586.00
2019-02-26T12:19:31.122Z,101572.00
2019-02-26T12:22:14.904Z,101589.00
2019-02-26T12:24:55.780Z,101598.00
2019-02-26T12:27:36.102Z,101593.00
2019-02-26T12:30:20.653Z,101605.00
2019-02-26T12:33:02.441Z,101591.00
2019-02-26T12:35:40.446Z,101597.00
2019-02-26T12:38:21.885Z,101593.00
2019-02-26T12:40:57.346Z,101617.00
2019-02-26T12:43:42.704Z,101606.00
2019-02-26T12:46:16.231Z,101606.00
2019-02-26T12:48:58.258Z,101608.00
2019-02-26T12:51:35.419Z,101613.00
2019-02-26T12:54:18.102Z,101615.00
2019-02-26T12:57:04.063Z,101625.00
2019-02-26T12:59:37.996Z,101614.00
2019-02-26T13:02:20.646Z,101618.00
2019-02-26T13:04:57.255Z,101627.00
2019-02-26T13:07:39.567Z,101628.00
2019-02-26T13:10:22.713Z,101618.00
2019-02-26T13:13:00.255Z,101619.00
2019-02-26T13:15:36.264Z,101629.00
2019-02-26T13:18:12.351Z,101628.00
2019-02-26T13:20:52.043Z,101632.00
2019-02-26T13:23:31.500Z,101633.00
2019-02-26T13:28:52.767Z,101629.00
2019-02-26T13:31:41.633Z,101638.00
2019-02-26T13:34:14.135Z,101634.00
2019-02-26T13:36:56.866Z,101636.00
2019-02-26T13:39:38.441Z,101629.00
2019-02-26T13:42:19.158Z,101629.00
2019-02-26T13:44:54.521Z,101629.00
2019-02-26T13:47:30.663Z,101630.00
2019-02-26T13:49:59.850Z,101651.00
2019-02-26T13:52:35.331Z,101641.00
2019-02-26T13:55:12.151Z,101624.00
2019-02-26T13:57:47.526Z,101633.00
2019-02-26T14:00:26.667Z,101626.00
2019-02-26T14:03:01.241Z,101632.00
2019-02-26T14:05:38.510Z,101629.00
2019-02-26T14:08:08.068Z,101626.00
2019-02-26T14:10:44.014Z,101637.00
2019-02-26T14:13:13.180Z,101633.00
2019-02-26T14:15:48.664Z,101629.00
2019-02-26T14:18:17.848Z,101622.00
2019-02-26T14:20:47.121Z,101636.00
2019-02-26T14:23:22.779Z,101639.00
2019-02-26T14:25:58.511Z,101644.00
2019-02-26T14:28:33.874Z,101655.00
2019-02-26T14:31:03.080Z,101636.00
2019-02-26T14:33:39.352Z,101635.00
2019-02-26T14:36:08.537Z,101626.00
2019-02-26T14:38:37.728Z,101631.00
2019-02-26T14:41:13.091Z,101633.00
2019-02-26T14:43:42.695Z,101629.00
2019-02-26T14:46:24.656Z,101581.00
2019-02-26T14:49:00.601Z,101636.00
2019-02-26T14:51:43.124Z,101628.00
2019-02-26T14:54:24.863Z,101624.00
2019-02-26T14:57:00.834Z,101625.00
2019-02-26T14:59:43.021Z,101635.00
2019-02-26T15:02:19.169Z,101634.00
2019-02-26T15:05:01.178Z,101630.00
2019-02-26T15:07:37.270Z,101625.00
2019-02-26T15:10:16.056Z,101630.00
2019-02-26T15:12:58.496Z,101631.00
2019-02-26T15:15:40.422Z,101635.00
2019-02-26T15:18:22.701Z,101650.00
2019-02-26T15:21:05.047Z,101637.00
2019-02-26T15:23:40.687Z,101651.00
2019-02-26T15:26:23.519Z,101646.00
2019-02-26T15:28:59.163Z,101647.00
2019-02-26T15:31:40.978Z,101650.00
2019-02-26T15:34:10.228Z,101641.00
2019-02-26T15:36:52.103Z,101644.00
2019-02-26T15:39:27.660Z,101652.00
2019-02-26T15:42:09.712Z,101653.00
2019-02-26T15:44:45.550Z,101652.00
2019-02-26T15:47:21.488Z,101662.00
2019-02-26T15:49:57.634Z,101661.00
2019-02-26T15:52:46.689Z,101656.00
2019-02-26T15:55:34.406Z,101664.00
2019-02-26T15:58:11.602Z,101665.00
2019-02-26T16:00:47.869Z,101663.00
2019-02-26T16:03:23.398Z,101630.00
2019-02-26T16:06:06.454Z,101666.00
2019-02-26T16:08:43.419Z,101671.00
2019-02-26T16:11:25.795Z,101676.00
2019-02-26T16:14:00.980Z,101678.00
2019-02-26T16:16:43.427Z,101688.00
2019-02-26T16:19:19.604Z,101702.00
2019-02-26T16:21:55.751Z,101696.00
2019-02-26T16:24:31.485Z,101706.00
2019-02-26T16:27:00.668Z,101707.00
2019-02-26T16:29:30.042Z,101696.00
2019-02-26T16:32:05.613Z,101693.00
2019-02-26T16:34:35.153Z,101703.00
2019-02-26T16:37:11.474Z,101709.00
2019-02-26T16:39:47.189Z,101718.00
2019-02-26T16:42:30.526Z,101719.00
2019-02-26T16:45:06.659Z,101723.00
2019-02-26T16:47:43.329Z,101721.00
2019-02-26T16:50:31.661Z,101736.00
2019-02-26T16:53:14.310Z,101726.00
2019-02-26T16:55:49.716Z,101731.00
2019-02-26T16:58:18.934Z,101731.00
2019-02-26T17:01:00.923Z,101726.00
2019-02-26T17:03:36.249Z,101736.00
2019-02-26T17:06:11.859Z,101737.00
2019-02-26T17:08:47.991Z,101724.00
2019-02-26T17:11:23.589Z,101730.00
2019-02-26T17:14:00.681Z,101745.00
2019-02-26T17:16:36.847Z,101743.00
2019-02-26T17:19:15.122Z,101740.00
2019-02-26T17:21:50.667Z,101739.00
2019-02-26T17:24:32.804Z,101737.00
2019-02-26T17:27:08.163Z,101746.00
2019-02-26T17:29:44.132Z,101743.00
2019-02-26T17:32:20.335Z,101736.00
2019-02-26T17:35:02.548Z,101745.00
2019-02-26T17:37:44.833Z,101744.00
2019-02-26T17:40:29.723Z,101738.00
2019-02-26T17:43:06.354Z,101732.00
2019-02-26T17:45:48.222Z,101737.00
2019-02-26T17:48:23.966Z,101735.00
2019-02-26T17:51:06.014Z,101737.00
2019-02-26T17:53:41.759Z,101748.00
2019-02-26T17:56:26.489Z,101750.00
2019-02-26T17:59:01.688Z,101738.00
2019-02-26T18:01:44.240Z,101736.00
2019-02-26T18:04:22.763Z,101730.00
2019-02-26T18:07:04.464Z,101733.00
2019-02-26T18:09:47.565Z,101732.00
2019-02-26T18:12:31.098Z,101737.00
2019-02-26T18:15:16.623Z,101749.00
2019-02-26T18:17:57.674Z,101730.00
2019-02-26T18:20:40.772Z,101719.00
2019-02-26T18:23:17.018Z,101720.00
2019-02-26T18:25:58.907Z,101714.00
2019-02-26T18:28:36.672Z,101710.00
2019-02-26T18:31:26.312Z,101716.00
2019-02-26T18:33:56.448Z,101717.00
2019-02-26T18:36:31.918Z,101716.00
2019-02-26T18:39:14.546Z,101716.00
2019-02-26T18:41:51.532Z,101718.00
2019-02-26T18:44:33.544Z,101713.00
2019-02-26T18:47:09.284Z,101715.00
2019-02-26T18:49:44.939Z,101719.00
2019-02-26T18:52:27.403Z,101719.00
2019-02-26T18:54:56.919Z,101733.00
2019-02-26T18:57:33.212Z,101726.00
2019-02-26T19:00:20.609Z,101735.00
2019-02-26T19:02:56.982Z,101727.00
2019-02-26T19:05:39.468Z,101726.00
2019-02-26T19:08:15.043Z,101728.00
2019-02-26T19:10:56.787Z,101728.00
2019-02-26T19:13:33.253Z,101732.00
2019-02-26T19:16:20.472Z,101737.00
2019-02-26T19:18:53.687Z,101737.00
2019-02-26T19:21:36.193Z,101744.00
2019-02-26T19:24:12.161Z,101739.00
2019-02-26T19:26:54.306Z,101740.00
2019-02-26T19:29:32.024Z,101731.00
2019-02-26T19:32:08.035Z,101734.00
2019-02-26T19:34:43.789Z,101740.00
2019-02-26T19:37:22.286Z,101736.00
2019-02-26T19:40:05.943Z,101741.00
2019-02-26T19:42:42.699Z,101741.00
2019-02-26T19:45:25.748Z,101742.00
2019-02-26T19:48:01.611Z,101745.00
2019-02-26T19:50:47.873Z,101744.00
2019-02-26T19:53:20.979Z,101740.00
2019-02-26T19:55:56.867Z,101741.00
2019-02-26T19:58:32.286Z,101735.00
2019-02-26T20:01:08.121Z,101742.00
2019-02-26T20:03:40.204Z,101745.00
2019-02-26T20:06:15.473Z,101739.00
2019-02-26T20:08:44.732Z,101741.00
2019-02-26T20:11:22.409Z,101742.00
2019-02-26T20:13:51.327Z,101745.00
2019-02-26T20:16:28.400Z,101737.00
2019-02-26T20:18:59.166Z,101735.00
2019-02-26T20:21:35.501Z,101731.00
2019-02-26T20:24:10.854Z,101736.00
2019-02-26T20:26:40.146Z,101736.00
2019-02-26T20:29:22.337Z,101733.00
2019-02-26T20:31:58.207Z,101730.00
2019-02-26T20:34:34.013Z,101732.00
2019-02-26T20:37:09.822Z,101735.00
2019-02-26T20:39:40.893Z,101737.00
2019-02-26T20:42:16.432Z,101741.00
2019-02-26T20:44:45.675Z,101735.00
2019-02-26T20:47:22.823Z,101721.00
2019-02-26T20:49:51.997Z,101715.00
2019-02-26T20:52:34.828Z,101715.00
2019-02-26T20:55:16.693Z,101716.00
2019-02-26T20:58:01.044Z,101716.00
2019-02-26T21:00:42.344Z,101717.00
2019-02-26T21:03:14.909Z,101719.00
2019-02-26T21:05:50.158Z,101703.00
2019-02-26T21:08:32.052Z,101703.00
2019-02-26T21:11:07.345Z,101709.00
2019-02-26T21:13:49.926Z,101703.00
2019-02-26T21:16:25.300Z,101713.00
2019-02-26T21:19:07.217Z,101706.00
2019-02-26T21:21:50.122Z,101705.00
2019-02-26T21:24:25.414Z,101704.00
2019-02-26T21:27:14.566Z,101703.00
2019-02-26T21:29:56.771Z,101706.00
2019-02-26T21:32:26.311Z,101694.00
2019-02-26T21:35:02.293Z,101694.00
2019-02-26T21:37:38.016Z,101689.00
2019-02-26T21:40:18.196Z,101688.00
2019-02-26T21:42:47.379Z,101680.00
2019-02-26T21:45:29.299Z,101670.00
2019-02-26T21:48:11.713Z,101680.00
2019-02-26T21:50:41.158Z,101673.00
2019-02-26T21:53:22.678Z,101676.00
2019-02-26T21:56:05.047Z,101679.00
2019-02-26T21:58:40.330Z,101674.00
2019-02-26T22:01:15.988Z,101657.00
2019-02-26T22:03:51.390Z,101670.00
2019-02-26T22:06:27.517Z,101673.00
2019-02-26T22:09:03.730Z,101675.00
2019-02-26T22:11:52.433Z,101681.00
2019-02-26T22:14:36.886Z,101670.00
2019-02-26T22:17:17.892Z,101676.00
2019-02-26T22:19:53.962Z,101669.00
2019-02-26T22:22:36.662Z,101667.00
2019-02-26T22:25:20.539Z,101679.00
2019-02-26T22:27:56.564Z,101666.00
2019-02-26T22:30:31.975Z,101665.00
2019-02-26T22:33:08.000Z,101665.00
2019-02-26T22:35:44.284Z,101669.00
2019-02-26T22:38:26.604Z,101669.00
2019-02-26T22:41:08.329Z,101669.00
2019-02-26T22:43:44.780Z,101659.00
2019-02-26T22:46:20.995Z,101650.00
2019-02-26T22:48:57.295Z,101658.00
2019-02-26T22:51:32.744Z,101660.00
2019-02-26T22:54:01.923Z,101656.00
2019-02-26T22:56:37.241Z,101664.00
2019-02-26T22:59:13.238Z,101668.00
2019-02-26T23:01:49.821Z,101666.00
2019-02-26T23:04:25.595Z,101659.00
2019-02-26T23:07:07.520Z,101662.00
2019-02-26T23:09:43.406Z,101651.00
2019-02-26T23:12:30.132Z,101640.00
2019-02-26T23:15:05.655Z,101638.00
2019-02-26T23:17:47.436Z,101649.00
2019-02-26T23:20:29.904Z,101654.00
2019-02-26T23:23:12.340Z,101657.00
2019-02-26T23:25:48.897Z,101656.00
2019-02-26T23:28:31.113Z,101643.00
2019-02-26T23:31:07.126Z,101643.00
2019-02-26T23:33:49.166Z,101648.00
2019-02-26T23:36:25.715Z,101654.00
2019-02-26T23:39:08.260Z,101650.00
2019-02-26T23:41:43.917Z,101642.00
2019-02-26T23:44:21.000Z,101639.00
2019-02-26T23:46:50.216Z,101638.00
2019-02-26T23:49:26.501Z,101637.00
2019-02-26T23:51:55.723Z,101637.00
2019-02-26T23:54:31.997Z,101647.00
2019-02-26T23:57:13.709Z,101641.00
2019-02-26T23:59:55.763Z,101646.00
